sensor_id;sensor_type;location;lat;lon;timestamp;temperature;humidity
47546;DHT22;50104;52.002;4.688;2023-06-14T00:02:04;21.40;53.80
47546;DHT22;50104;52.002;4.688;2023-06-14T00:07:09;21.30;54.00
47546;DHT22;50104;52.002;4.688;2023-06-14T00:12:10;21.30;54.30
47546;DHT22;50104;52.002;4.688;2023-06-14T00:17:11;21.20;54.60
47546;DHT22;50104;52.002;4.688;2023-06-14T00:22:13;21.10;54.90
47546;DHT22;50104;52.002;4.688;2023-06-14T00:27:14;21.00;55.40
47546;DHT22;50104;52.002;4.688;2023-06-14T00:32:15;20.90;55.60
47546;DHT22;50104;52.002;4.688;2023-06-14T00:37:16;20.80;56.00
47546;DHT22;50104;52.002;4.688;2023-06-14T00:42:24;20.70;55.80
47546;DHT22;50104;52.002;4.688;2023-06-14T00:47:26;20.60;56.70
47546;DHT22;50104;52.002;4.688;2023-06-14T00:52:27;20.50;56.60
47546;DHT22;50104;52.002;4.688;2023-06-14T00:57:28;20.40;56.90
47546;DHT22;50104;52.002;4.688;2023-06-14T01:02:30;20.30;56.70
47546;DHT22;50104;52.002;4.688;2023-06-14T01:13:30;20.20;57.70
47546;DHT22;50104;52.002;4.688;2023-06-14T01:18:34;20.10;57.30
47546;DHT22;50104;52.002;4.688;2023-06-14T01:23:35;20.00;57.00
47546;DHT22;50104;52.002;4.688;2023-06-14T01:28:36;19.90;57.10
47546;DHT22;50104;52.002;4.688;2023-06-14T01:33:37;19.80;57.30
47546;DHT22;50104;52.002;4.688;2023-06-14T01:38:39;19.80;57.30
47546;DHT22;50104;52.002;4.688;2023-06-14T01:43:41;19.70;56.90
47546;DHT22;50104;52.002;4.688;2023-06-14T01:48:43;19.60;57.00
47546;DHT22;50104;52.002;4.688;2023-06-14T01:53:44;19.60;56.60
47546;DHT22;50104;52.002;4.688;2023-06-14T01:58:45;19.50;56.70
47546;DHT22;50104;52.002;4.688;2023-06-14T02:03:47;19.50;56.70
47546;DHT22;50104;52.002;4.688;2023-06-14T02:08:49;19.40;56.50
47546;DHT22;50104;52.002;4.688;2023-06-14T02:13:50;19.40;56.60
47546;DHT22;50104;52.002;4.688;2023-06-14T02:18:51;19.30;56.60
47546;DHT22;50104;52.002;4.688;2023-06-14T02:23:53;19.20;56.80
47546;DHT22;50104;52.002;4.688;2023-06-14T02:28:53;19.20;56.60
47546;DHT22;50104;52.002;4.688;2023-06-14T02:33:54;19.20;56.60
47546;DHT22;50104;52.002;4.688;2023-06-14T02:38:55;19.10;56.80
47546;DHT22;50104;52.002;4.688;2023-06-14T02:43:57;19.00;57.20
47546;DHT22;50104;52.002;4.688;2023-06-14T02:48:59;19.00;57.20
47546;DHT22;50104;52.002;4.688;2023-06-14T02:54:00;18.90;57.50
47546;DHT22;50104;52.002;4.688;2023-06-14T02:59:02;18.80;57.50
47546;DHT22;50104;52.002;4.688;2023-06-14T03:04:03;18.80;57.70
47546;DHT22;50104;52.002;4.688;2023-06-14T03:09:04;18.70;57.70
47546;DHT22;50104;52.002;4.688;2023-06-14T03:14:05;18.60;58.00
47546;DHT22;50104;52.002;4.688;2023-06-14T03:19:08;18.50;58.20
47546;DHT22;50104;52.002;4.688;2023-06-14T03:24:09;18.50;58.40
47546;DHT22;50104;52.002;4.688;2023-06-14T03:29:10;18.40;58.30
47546;DHT22;50104;52.002;4.688;2023-06-14T03:34:11;18.30;58.70
47546;DHT22;50104;52.002;4.688;2023-06-14T03:39:11;18.30;59.00
47546;DHT22;50104;52.002;4.688;2023-06-14T03:44:15;18.20;59.30
47546;DHT22;50104;52.002;4.688;2023-06-14T03:49:18;18.20;59.30
47546;DHT22;50104;52.002;4.688;2023-06-14T03:54:19;18.10;59.30
47546;DHT22;50104;52.002;4.688;2023-06-14T03:59:21;18.10;59.80
47546;DHT22;50104;52.002;4.688;2023-06-14T04:04:23;18.00;60.10
47546;DHT22;50104;52.002;4.688;2023-06-14T04:09:29;18.00;60.20
47546;DHT22;50104;52.002;4.688;2023-06-14T04:14:30;17.90;60.00
47546;DHT22;50104;52.002;4.688;2023-06-14T04:19:33;17.90;60.10
47546;DHT22;50104;52.002;4.688;2023-06-14T04:24:34;17.80;60.30
47546;DHT22;50104;52.002;4.688;2023-06-14T04:29:35;17.80;60.30
47546;DHT22;50104;52.002;4.688;2023-06-14T04:34:36;17.80;60.30
47546;DHT22;50104;52.002;4.688;2023-06-14T04:39:38;17.80;60.60
47546;DHT22;50104;52.002;4.688;2023-06-14T04:44:38;17.80;60.80
47546;DHT22;50104;52.002;4.688;2023-06-14T04:49:40;17.80;60.90
47546;DHT22;50104;52.002;4.688;2023-06-14T04:54:41;17.80;61.10
47546;DHT22;50104;52.002;4.688;2023-06-14T04:59:45;17.80;61.00
47546;DHT22;50104;52.002;4.688;2023-06-14T05:04:46;17.80;60.80
47546;DHT22;50104;52.002;4.688;2023-06-14T05:09:48;17.80;61.00
47546;DHT22;50104;52.002;4.688;2023-06-14T05:14:49;17.80;60.90
47546;DHT22;50104;52.002;4.688;2023-06-14T05:19:50;17.90;61.50
47546;DHT22;50104;52.002;4.688;2023-06-14T05:24:51;17.90;61.60
47546;DHT22;50104;52.002;4.688;2023-06-14T05:29:52;17.90;61.40
47546;DHT22;50104;52.002;4.688;2023-06-14T05:34:56;18.00;61.90
47546;DHT22;50104;52.002;4.688;2023-06-14T05:39:57;18.00;61.20
47546;DHT22;50104;52.002;4.688;2023-06-14T05:44:58;18.10;60.90
47546;DHT22;50104;52.002;4.688;2023-06-14T05:49:59;18.10;61.00
47546;DHT22;50104;52.002;4.688;2023-06-14T05:55:00;18.20;60.40
47546;DHT22;50104;52.002;4.688;2023-06-14T06:00:01;18.20;60.30
47546;DHT22;50104;52.002;4.688;2023-06-14T06:05:06;18.30;60.40
47546;DHT22;50104;52.002;4.688;2023-06-14T06:10:07;18.30;60.30
47546;DHT22;50104;52.002;4.688;2023-06-14T06:15:09;18.40;60.50
47546;DHT22;50104;52.002;4.688;2023-06-14T06:20:13;18.40;60.90
47546;DHT22;50104;52.002;4.688;2023-06-14T06:25:14;18.50;61.30
47546;DHT22;50104;52.002;4.688;2023-06-14T06:30:16;18.60;61.60
47546;DHT22;50104;52.002;4.688;2023-06-14T06:35:17;18.70;62.30
47546;DHT22;50104;52.002;4.688;2023-06-14T06:40:18;18.90;62.70
47546;DHT22;50104;52.002;4.688;2023-06-14T06:45:19;19.40;62.60
47546;DHT22;50104;52.002;4.688;2023-06-14T06:50:20;20.00;61.40
47546;DHT22;50104;52.002;4.688;2023-06-14T06:55:23;20.60;59.90
47546;DHT22;50104;52.002;4.688;2023-06-14T07:00:24;21.20;58.70
47546;DHT22;50104;52.002;4.688;2023-06-14T07:05:26;21.80;57.30
47546;DHT22;50104;52.002;4.688;2023-06-14T07:10:27;22.40;55.70
47546;DHT22;50104;52.002;4.688;2023-06-14T07:15:29;22.90;54.60
47546;DHT22;50104;52.002;4.688;2023-06-14T07:20:30;23.40;53.60
47546;DHT22;50104;52.002;4.688;2023-06-14T07:25:31;23.80;52.60
47546;DHT22;50104;52.002;4.688;2023-06-14T07:30:32;24.20;51.60
47546;DHT22;50104;52.002;4.688;2023-06-14T07:35:33;24.60;51.00
47546;DHT22;50104;52.002;4.688;2023-06-14T07:40:35;24.90;50.50
47546;DHT22;50104;52.002;4.688;2023-06-14T07:45:37;25.20;50.70
47546;DHT22;50104;52.002;4.688;2023-06-14T07:50:38;25.50;49.50
47546;DHT22;50104;52.002;4.688;2023-06-14T07:55:39;25.80;49.00
47546;DHT22;50104;52.002;4.688;2023-06-14T08:00:42;26.00;48.70
47546;DHT22;50104;52.002;4.688;2023-06-14T08:05:44;26.20;48.70
47546;DHT22;50104;52.002;4.688;2023-06-14T08:10:45;26.40;48.60
47546;DHT22;50104;52.002;4.688;2023-06-14T08:15:46;26.60;48.10
47546;DHT22;50104;52.002;4.688;2023-06-14T08:20:46;26.80;48.30
47546;DHT22;50104;52.002;4.688;2023-06-14T08:25:47;26.90;48.10
47546;DHT22;50104;52.002;4.688;2023-06-14T08:30:48;27.10;47.80
47546;DHT22;50104;52.002;4.688;2023-06-14T08:35:49;27.30;47.70
47546;DHT22;50104;52.002;4.688;2023-06-14T08:40:50;27.40;47.40
47546;DHT22;50104;52.002;4.688;2023-06-14T08:46:00;27.50;46.90
47546;DHT22;50104;52.002;4.688;2023-06-14T08:51:04;27.50;46.90
47546;DHT22;50104;52.002;4.688;2023-06-14T08:56:05;27.50;47.00
47546;DHT22;50104;52.002;4.688;2023-06-14T09:01:08;27.60;47.10
47546;DHT22;50104;52.002;4.688;2023-06-14T09:06:12;27.60;46.90
47546;DHT22;50104;52.002;4.688;2023-06-14T09:11:17;27.70;46.80
47546;DHT22;50104;52.002;4.688;2023-06-14T09:16:19;27.80;46.60
47546;DHT22;50104;52.002;4.688;2023-06-14T09:21:20;27.90;46.50
47546;DHT22;50104;52.002;4.688;2023-06-14T09:26:22;28.00;46.20
47546;DHT22;50104;52.002;4.688;2023-06-14T09:31:28;28.10;46.00
47546;DHT22;50104;52.002;4.688;2023-06-14T09:36:32;28.20;45.90
47546;DHT22;50104;52.002;4.688;2023-06-14T09:41:35;28.40;45.90
47546;DHT22;50104;52.002;4.688;2023-06-14T09:46:43;28.50;45.90
47546;DHT22;50104;52.002;4.688;2023-06-14T09:51:45;28.60;44.80
47546;DHT22;50104;52.002;4.688;2023-06-14T09:56:47;28.80;43.90
47546;DHT22;50104;52.002;4.688;2023-06-14T10:01:49;29.00;43.30
47546;DHT22;50104;52.002;4.688;2023-06-14T10:06:51;29.20;43.10
47546;DHT22;50104;52.002;4.688;2023-06-14T10:11:53;29.30;42.50
47546;DHT22;50104;52.002;4.688;2023-06-14T10:17:10;29.50;42.00
47546;DHT22;50104;52.002;4.688;2023-06-14T10:22:18;29.70;41.30
47546;DHT22;50104;52.002;4.688;2023-06-14T10:27:52;29.80;41.50
47546;DHT22;50104;52.002;4.688;2023-06-14T10:33:08;30.00;41.50
47546;DHT22;50104;52.002;4.688;2023-06-14T10:38:12;30.20;40.70
47546;DHT22;50104;52.002;4.688;2023-06-14T10:43:21;30.40;41.10
47546;DHT22;50104;52.002;4.688;2023-06-14T10:48:30;30.60;40.60
47546;DHT22;50104;52.002;4.688;2023-06-14T10:53:40;30.80;40.50
47546;DHT22;50104;52.002;4.688;2023-06-14T10:58:41;31.00;40.40
47546;DHT22;50104;52.002;4.688;2023-06-14T11:03:51;31.20;40.30
47546;DHT22;50104;52.002;4.688;2023-06-14T11:14:24;31.60;39.70
47546;DHT22;50104;52.002;4.688;2023-06-14T11:19:25;31.80;39.80
47546;DHT22;50104;52.002;4.688;2023-06-14T11:24:29;32.00;38.90
47546;DHT22;50104;52.002;4.688;2023-06-14T11:29:29;32.20;38.60
47546;DHT22;50104;52.002;4.688;2023-06-14T11:34:31;32.40;38.50
47546;DHT22;50104;52.002;4.688;2023-06-14T11:39:32;32.60;37.70
47546;DHT22;50104;52.002;4.688;2023-06-14T11:44:32;32.80;37.20
47546;DHT22;50104;52.002;4.688;2023-06-14T11:49:37;32.90;37.20
47546;DHT22;50104;52.002;4.688;2023-06-14T11:54:38;33.10;36.50
47546;DHT22;50104;52.002;4.688;2023-06-14T11:59:40;33.30;36.50
47546;DHT22;50104;52.002;4.688;2023-06-14T12:04:46;33.50;36.70
47546;DHT22;50104;52.002;4.688;2023-06-14T12:14:56;33.70;36.50
47546;DHT22;50104;52.002;4.688;2023-06-14T12:19:57;33.90;36.50
47546;DHT22;50104;52.002;4.688;2023-06-14T12:24:58;34.00;36.70
47546;DHT22;50104;52.002;4.688;2023-06-14T12:30:00;34.10;36.00
47546;DHT22;50104;52.002;4.688;2023-06-14T12:35:01;34.30;35.60
47546;DHT22;50104;52.002;4.688;2023-06-14T12:40:03;34.50;36.00
47546;DHT22;50104;52.002;4.688;2023-06-14T12:45:07;34.60;36.70
47546;DHT22;50104;52.002;4.688;2023-06-14T12:50:08;34.80;36.00
47546;DHT22;50104;52.002;4.688;2023-06-14T12:55:09;34.90;36.80
47546;DHT22;50104;52.002;4.688;2023-06-14T13:00:10;35.00;36.10
47546;DHT22;50104;52.002;4.688;2023-06-14T13:05:13;35.10;36.40
47546;DHT22;50104;52.002;4.688;2023-06-14T13:10:14;35.20;36.20
47546;DHT22;50104;52.002;4.688;2023-06-14T13:15:15;35.40;36.00
47546;DHT22;50104;52.002;4.688;2023-06-14T13:20:16;35.50;36.10
47546;DHT22;50104;52.002;4.688;2023-06-14T13:25:18;35.60;36.10
47546;DHT22;50104;52.002;4.688;2023-06-14T13:30:19;35.70;36.00
47546;DHT22;50104;52.002;4.688;2023-06-14T13:35:20;35.80;36.30
47546;DHT22;50104;52.002;4.688;2023-06-14T13:40:21;35.80;35.90
47546;DHT22;50104;52.002;4.688;2023-06-14T13:45:22;36.00;35.20
47546;DHT22;50104;52.002;4.688;2023-06-14T13:50:23;36.10;35.20
47546;DHT22;50104;52.002;4.688;2023-06-14T13:55:24;36.10;34.80
47546;DHT22;50104;52.002;4.688;2023-06-14T14:00:25;36.20;34.80
47546;DHT22;50104;52.002;4.688;2023-06-14T14:05:26;36.30;34.80
47546;DHT22;50104;52.002;4.688;2023-06-14T14:10:30;36.40;35.30
47546;DHT22;50104;52.002;4.688;2023-06-14T14:15:31;36.40;35.50
47546;DHT22;50104;52.002;4.688;2023-06-14T14:20:35;36.50;35.10
47546;DHT22;50104;52.002;4.688;2023-06-14T14:25:36;36.60;34.40
47546;DHT22;50104;52.002;4.688;2023-06-14T14:30:37;36.70;34.70
47546;DHT22;50104;52.002;4.688;2023-06-14T14:35:40;36.70;35.20
47546;DHT22;50104;52.002;4.688;2023-06-14T14:40:41;36.80;35.30
47546;DHT22;50104;52.002;4.688;2023-06-14T14:45:43;36.80;34.90
47546;DHT22;50104;52.002;4.688;2023-06-14T14:50:45;36.90;34.50
47546;DHT22;50104;52.002;4.688;2023-06-14T14:55:46;37.00;34.70
47546;DHT22;50104;52.002;4.688;2023-06-14T15:00:47;37.00;34.70
47546;DHT22;50104;52.002;4.688;2023-06-14T15:05:48;37.00;34.60
47546;DHT22;50104;52.002;4.688;2023-06-14T15:10:49;37.10;34.40
47546;DHT22;50104;52.002;4.688;2023-06-14T15:15:50;37.10;34.30
47546;DHT22;50104;52.002;4.688;2023-06-14T15:20:51;37.10;34.50
47546;DHT22;50104;52.002;4.688;2023-06-14T15:25:52;37.10;34.30
47546;DHT22;50104;52.002;4.688;2023-06-14T15:30:53;37.10;34.40
47546;DHT22;50104;52.002;4.688;2023-06-14T15:35:56;37.10;34.10
47546;DHT22;50104;52.002;4.688;2023-06-14T15:40:57;37.00;33.60
47546;DHT22;50104;52.002;4.688;2023-06-14T15:45:58;37.00;33.40
47546;DHT22;50104;52.002;4.688;2023-06-14T15:50:59;36.90;33.90
47546;DHT22;50104;52.002;4.688;2023-06-14T15:56:00;36.80;33.90
47546;DHT22;50104;52.002;4.688;2023-06-14T16:01:01;36.80;33.80
47546;DHT22;50104;52.002;4.688;2023-06-14T16:06:02;36.70;33.80
47546;DHT22;50104;52.002;4.688;2023-06-14T16:11:18;36.60;33.70
47546;DHT22;50104;52.002;4.688;2023-06-14T16:16:19;36.60;34.00
47546;DHT22;50104;52.002;4.688;2023-06-14T16:21:21;36.50;33.60
47546;DHT22;50104;52.002;4.688;2023-06-14T16:26:22;36.40;34.00
47546;DHT22;50104;52.002;4.688;2023-06-14T16:31:23;36.40;34.30
47546;DHT22;50104;52.002;4.688;2023-06-14T16:36:24;36.30;34.60
47546;DHT22;50104;52.002;4.688;2023-06-14T16:41:25;36.20;34.40
47546;DHT22;50104;52.002;4.688;2023-06-14T16:46:32;36.10;34.30
47546;DHT22;50104;52.002;4.688;2023-06-14T16:51:34;36.10;33.90
47546;DHT22;50104;52.002;4.688;2023-06-14T16:56:35;36.00;34.90
47546;DHT22;50104;52.002;4.688;2023-06-14T17:01:37;35.90;35.30
47546;DHT22;50104;52.002;4.688;2023-06-14T17:06:38;35.80;35.00
47546;DHT22;50104;52.002;4.688;2023-06-14T17:11:40;35.70;34.80
47546;DHT22;50104;52.002;4.688;2023-06-14T17:16:41;35.60;34.60
47546;DHT22;50104;52.002;4.688;2023-06-14T17:21:42;35.50;34.30
47546;DHT22;50104;52.002;4.688;2023-06-14T17:26:49;35.40;34.60
47546;DHT22;50104;52.002;4.688;2023-06-14T17:31:50;35.20;35.10
47546;DHT22;50104;52.002;4.688;2023-06-14T17:36:51;35.10;34.00
47546;DHT22;50104;52.002;4.688;2023-06-14T17:41:52;35.00;34.60
47546;DHT22;50104;52.002;4.688;2023-06-14T17:46:53;34.90;35.00
47546;DHT22;50104;52.002;4.688;2023-06-14T17:51:54;34.80;35.10
47546;DHT22;50104;52.002;4.688;2023-06-14T17:56:55;34.70;35.50
47546;DHT22;50104;52.002;4.688;2023-06-14T18:01:56;34.50;35.60
47546;DHT22;50104;52.002;4.688;2023-06-14T18:06:58;34.40;35.60
47546;DHT22;50104;52.002;4.688;2023-06-14T18:12:00;34.30;35.60
47546;DHT22;50104;52.002;4.688;2023-06-14T18:17:01;34.10;35.90
47546;DHT22;50104;52.002;4.688;2023-06-14T18:22:02;34.00;36.10
47546;DHT22;50104;52.002;4.688;2023-06-14T18:27:03;33.80;36.60
47546;DHT22;50104;52.002;4.688;2023-06-14T18:32:06;33.60;36.80
47546;DHT22;50104;52.002;4.688;2023-06-14T18:37:07;33.50;37.20
47546;DHT22;50104;52.002;4.688;2023-06-14T18:42:08;33.30;37.70
47546;DHT22;50104;52.002;4.688;2023-06-14T18:47:12;33.10;37.40
47546;DHT22;50104;52.002;4.688;2023-06-14T18:52:13;32.90;37.70
47546;DHT22;50104;52.002;4.688;2023-06-14T18:57:15;32.70;37.80
47546;DHT22;50104;52.002;4.688;2023-06-14T19:02:16;32.40;37.70
47546;DHT22;50104;52.002;4.688;2023-06-14T19:07:16;32.10;37.50
47546;DHT22;50104;52.002;4.688;2023-06-14T19:12:17;31.90;38.10
47546;DHT22;50104;52.002;4.688;2023-06-14T19:17:18;31.70;38.20
47546;DHT22;50104;52.002;4.688;2023-06-14T19:22:19;31.40;38.80
47546;DHT22;50104;52.002;4.688;2023-06-14T19:27:20;31.10;38.60
47546;DHT22;50104;52.002;4.688;2023-06-14T19:32:21;30.80;39.10
47546;DHT22;50104;52.002;4.688;2023-06-14T19:37:23;30.50;39.60
47546;DHT22;50104;52.002;4.688;2023-06-14T19:42:23;30.20;39.80
47546;DHT22;50104;52.002;4.688;2023-06-14T19:47:25;29.90;40.40
47546;DHT22;50104;52.002;4.688;2023-06-14T19:52:26;29.60;40.60
47546;DHT22;50104;52.002;4.688;2023-06-14T19:57:28;29.30;40.80
47546;DHT22;50104;52.002;4.688;2023-06-14T20:02:29;29.00;41.10
47546;DHT22;50104;52.002;4.688;2023-06-14T20:07:31;28.70;41.40
47546;DHT22;50104;52.002;4.688;2023-06-14T20:12:34;28.40;41.60
47546;DHT22;50104;52.002;4.688;2023-06-14T20:17:36;28.20;42.00
47546;DHT22;50104;52.002;4.688;2023-06-14T20:22:37;27.90;42.20
47546;DHT22;50104;52.002;4.688;2023-06-14T20:27:38;27.60;42.40
47546;DHT22;50104;52.002;4.688;2023-06-14T20:32:39;27.40;42.70
47546;DHT22;50104;52.002;4.688;2023-06-14T20:37:40;27.20;42.90
47546;DHT22;50104;52.002;4.688;2023-06-14T20:42:40;26.90;43.20
47546;DHT22;50104;52.002;4.688;2023-06-14T20:47:42;26.70;43.50
47546;DHT22;50104;52.002;4.688;2023-06-14T20:52:43;26.50;43.70
47546;DHT22;50104;52.002;4.688;2023-06-14T20:57:45;26.30;43.90
47546;DHT22;50104;52.002;4.688;2023-06-14T21:02:46;26.10;44.10
47546;DHT22;50104;52.002;4.688;2023-06-14T21:07:47;25.90;44.40
47546;DHT22;50104;52.002;4.688;2023-06-14T21:12:49;25.70;44.60
47546;DHT22;50104;52.002;4.688;2023-06-14T21:17:53;25.60;44.90
47546;DHT22;50104;52.002;4.688;2023-06-14T21:22:54;25.40;45.10
47546;DHT22;50104;52.002;4.688;2023-06-14T21:27:55;25.20;45.20
47546;DHT22;50104;52.002;4.688;2023-06-14T21:32:56;25.10;45.50
47546;DHT22;50104;52.002;4.688;2023-06-14T21:37:57;24.90;45.70
47546;DHT22;50104;52.002;4.688;2023-06-14T21:42:58;24.80;45.90
47546;DHT22;50104;52.002;4.688;2023-06-14T21:47:59;24.60;46.10
47546;DHT22;50104;52.002;4.688;2023-06-14T21:52:59;24.50;46.00
47546;DHT22;50104;52.002;4.688;2023-06-14T21:58:00;24.40;46.10
47546;DHT22;50104;52.002;4.688;2023-06-14T22:03:02;24.20;46.10
47546;DHT22;50104;52.002;4.688;2023-06-14T22:08:03;24.10;46.30
47546;DHT22;50104;52.002;4.688;2023-06-14T22:13:04;24.00;46.30
47546;DHT22;50104;52.002;4.688;2023-06-14T22:18:05;23.90;46.50
47546;DHT22;50104;52.002;4.688;2023-06-14T22:23:07;23.70;47.10
47546;DHT22;50104;52.002;4.688;2023-06-14T22:28:08;23.60;47.60
47546;DHT22;50104;52.002;4.688;2023-06-14T22:33:09;23.50;47.90
47546;DHT22;50104;52.002;4.688;2023-06-14T22:38:10;23.30;48.20
47546;DHT22;50104;52.002;4.688;2023-06-14T22:43:12;23.20;48.40
47546;DHT22;50104;52.002;4.688;2023-06-14T22:48:13;23.10;48.90
47546;DHT22;50104;52.002;4.688;2023-06-14T22:53:15;22.90;49.20
47546;DHT22;50104;52.002;4.688;2023-06-14T22:58:16;22.80;49.50
47546;DHT22;50104;52.002;4.688;2023-06-14T23:03:17;22.70;49.90
47546;DHT22;50104;52.002;4.688;2023-06-14T23:08:20;22.50;50.20
47546;DHT22;50104;52.002;4.688;2023-06-14T23:13:20;22.40;50.40
47546;DHT22;50104;52.002;4.688;2023-06-14T23:18:21;22.30;50.90
47546;DHT22;50104;52.002;4.688;2023-06-14T23:23:24;22.20;51.20
47546;DHT22;50104;52.002;4.688;2023-06-14T23:28:27;22.10;51.30
47546;DHT22;50104;52.002;4.688;2023-06-14T23:33:34;22.00;51.70
47546;DHT22;50104;52.002;4.688;2023-06-14T23:38:35;21.90;52.00
47546;DHT22;50104;52.002;4.688;2023-06-14T23:43:56;21.80;51.70
47546;DHT22;50104;52.002;4.688;2023-06-14T23:49:05;21.60;52.20
47546;DHT22;50104;52.002;4.688;2023-06-14T23:54:05;21.50;52.40
47546;DHT22;50104;52.002;4.688;2023-06-14T23:59:07;21.40;52.70
